Startpagina
METAR-TAF:

METAR-TAF

Vliegvelden :

San Andrés, Colombia

breedte: 12-35N, lengte: 081-43W, hoogte: 1 m

Actueel weer

Dit bericht is 1 uur en het 6 minuten geleden gemaakt, om 23:00 UTC
Wind 10 kt uit het noorden, variërend tussen het noordwesten en het noordnoordoosten
Temperatuur 26°C
Vochtigheid 84%
Druk 1013 hPa
Zicht 10 km of meer
Verspreide wolken op 1700 ft
Gebroken wolken op 8000 ft

METAR: SKSP 232300Z 36010KT 320V020 9999 SCT017 BKN080 26/23 A2992

Tijdstip: 19:06 (00:06 UTC)

Verwachting

Dit bericht is 1 uur en het 36 minuten geleden gemaakt, om 22:30 UTC
Verwachting geldig van 24 om 00 UTC tot 24 om 24 UTC
Wind 8 kt uit het noordoosten
Zicht 10 km of meer
Verspreide wolken op 1700 ft
Verspreide wolken op 8000 ft
Kans 40% :
Tijdelijke
van 24 om 08 UTC tot 24 om 10 UTC
Zicht: 6000 m
motregen, regen

TAF: SKSP 232230Z 2400/2424 04008KT 9999 SCT017 SCT080 PROB40 TEMPO 2408/2410 6000 DZRA TX30/2419Z TN25/2411Z

Waarnemingen en weersverwachtingen van meer dan 4000 vliegvelden (METAR en TAF).

De beschikbare stations zijn de gele en rode punten op de kaart.

Ga met uw muis naar het station om de naam te zien.

Klik dan om waarnemingen en weersverwachtingen te zien.

kaart wijzigen: klik op de groene knoppen met een zwart kruis om in te zoomen, op de groene knop met een streepje om uit te zoomen of op de groene pijlen voor aangrenzende kaarten.


METAR-TAF: